Nearby METAR Reports

(scroll for additional cities)

KPSP - Palm Springs, California, USA
Distance from station: WNW 7mi, 11km
Updated: Mon, 21-Aug-2017 11:53am PDT
Clear
Clear
 Wind from calm
Wind: Calm
Temperature: 99°F , 37°C
Dew Point: 41°F , 5°C
Humidity: 14%
Barometer: 29.90 inHg , 1012.5 hPa
Clouds: Clear
Visibility: 10 miles , 16 km
2017/08/21 18:53 KPSP 211853Z 00000KT 10SM CLR 37/05 A2990 RMK AO2 SLP120 T03720050
KTRM - Thermal/Palm Spg, California, USA
Distance from station: SE 16mi, 26km
Updated: Mon, 21-Aug-2017 10:52am PDT
NOT Current
Clear
Clear
 Wind from S
Wind: S 3 mph , 6 km/h
Temperature: 93°F , 34°C
Dew Point: 54°F , 12°C
Humidity: 26%
Barometer: 29.85 inHg , 1010.8 hPa
Clouds: Clear
Visibility: 10 miles , 16 km
2017/08/21 17:52 KTRM 211752Z AUTO 19003KT 10SM CLR 34/12 A2985 RMK AO2 SLP111 6//// T03390122 10339 20222 51006
 
KNXP - Twentynine Palms, California, USA
Distance from station: NNE 37mi, 60km
Updated: Mon, 21-Aug-2017 11:56am PDT
Few Clouds
Few Clouds
 Wind from ESE
Wind: ESE 10 mph , 17 km/h
Temperature: 93°F , 34°C
Dew Point: 43°F , 6°C
Humidity: 17%
Barometer: 30.06 inHg , 1017.9 hPa
Clouds: Few Clouds
Visibility: 10 miles , 16 km
Cloud details: Few Clouds 15000 ft
Few Clouds 25000 ft
2017/08/21 18:56 KNXP 211856Z 12009KT 10SM FEW150 FEW250 34/06 A3006 RMK AO2 SLP138 T03390056 $
KL35 - Big Bear City, California, USA
Distance from station: NW 43mi, 69km
Updated: Mon, 21-Aug-2017 12:15pm PDT
Partly Cloudy
Partly Cloudy
 Wind from E
Wind: E 7 mph , 11 km/h, Gust: 18 mph , 30 km/h
Temperature: 70°F , 21°C
Dew Point: 34°F , 1°C
Humidity: 27%
Barometer: 30.29 inHg , 1025.7 hPa
Clouds: Partly Cloudy
Visibility: 10 miles , 16 km
Cloud details: Partly Cloudy 7500 ft
2017/08/21 19:15 KL35 211915Z AUTO 08006G16KT 10SM SCT075 21/01 A3029 RMK AO2
 
KF70 - Murrieta/Temecula, California, USA
Distance from station: WSW 45mi, 73km
Updated: Mon, 21-Aug-2017 12:15pm PDT
Clear
Clear
 Wind from SSE
Wind: SSE 3 mph , 6 km/h
Temperature: 77°F , 25°C
Dew Point: 57°F , 14°C
Humidity: 51%
Barometer: 30.01 inHg , 1016.3 hPa
Clouds: Clear
Visibility: 10 miles , 16 km
2017/08/21 19:15 KF70 211915Z AUTO 16003KT 10SM CLR 25/14 A3001 RMK AO1
KRIV - Riverside/March, California, USA
Distance from station: W 51mi, 82km
Updated: Mon, 21-Aug-2017 11:58am PDT
Few Clouds
Few Clouds
 Wind from WSW
Wind: WSW 5 mph , 7 km/h
Temperature: 77°F , 25°C
Dew Point: 59°F , 15°C
Humidity: 54%
Barometer: 30.01 inHg , 1016.3 hPa
Clouds: Few Clouds
Visibility: 10 miles , 16 km
Cloud details: Few Clouds 19000 ft
2017/08/21 18:58 KRIV 211858Z AUTO 24004KT 10SM FEW190 25/15 A3001 RMK AO2 SLP152 T02490149
 
KSBD - San Bernardino, California, USA
Distance from station: WNW 54mi, 86km
Updated: Mon, 21-Aug-2017 11:48am PDT
Haze, Clear
Haze, Clear
 Wind from calm
Wind: Calm
Temperature: 79°F , 26°C
Dew Point: 57°F , 14°C
Humidity: 48%
Barometer: 30.01 inHg , 1016.3 hPa
Summary: Haze
Clouds: Clear
Visibility: 3 miles , 5 km
2017/08/21 18:48 KSBD 211848Z 00000KT 3SM HZ SKC 26/14 A3001
KRNM - Ramona, California, USA
Distance from station: SSW 60mi, 96km
Updated: Mon, 21-Aug-2017 11:53am PDT
Clear
Clear
 Wind from NW
Wind: NW 6 mph , 9 km/h
Temperature: 75°F , 24°C
Dew Point: 61°F , 16°C
Humidity: 61%
Barometer: 30.02 inHg , 1016.6 hPa
Clouds: Clear
Visibility: 10 miles , 16 km
2017/08/21 18:53 KRNM 211853Z 32005KT 10SM CLR 24/16 A3002 RMK AO2 SLP150 T02440156
 
KRAL - Riverside, California, USA
Distance from station: W 62mi, 100km
Updated: Mon, 21-Aug-2017 11:53am PDT
Clear
Clear
 Wind from varies
Wind: varies 3 mph , 6 km/h
Temperature: 75°F , 24°C
Dew Point: 63°F , 17°C
Humidity: 65%
Barometer: 30.01 inHg , 1016.3 hPa
Clouds: Clear
Visibility: 8 miles , 13 km
2017/08/21 18:53 KRAL 211853Z VRB03KT 8SM CLR 24/17 A3001 RMK AO2 SLP147 T02390167
KOKB - Oceanside, California, USA
Distance from station: SW 68mi, 109km
Updated: Mon, 21-Aug-2017 11:52am PDT
Clear
Clear
 Wind from W
Wind: W 8 mph , 13 km/h
Temperature: 75°F , 24°C
Dew Point: 63°F , 17°C
Humidity: 65%
Barometer: 29.99 inHg , 1015.6 hPa
Clouds: Clear
Visibility: 10 miles , 16 km
2017/08/21 18:52 KOKB 211852Z AUTO 28007KT 10SM CLR 24/17 A2999 RMK AO2 SLP156 T02440167
 
KONT - Ontario, California, USA
Distance from station: WNW 71mi, 114km
Updated: Mon, 21-Aug-2017 11:53am PDT
Haze, Clear
Haze, Clear
 Wind from varies
Wind: varies 3 mph , 6 km/h
Temperature: 75°F , 24°C
Dew Point: 61°F , 16°C
Humidity: 61%
Barometer: 30.01 inHg , 1016.3 hPa
Summary: Haze
Clouds: Clear
Visibility: 5 miles , 8 km
2017/08/21 18:53 KONT 211853Z VRB03KT 5SM HZ CLR 24/16 A3001 RMK AO2 SLP150 T02390156
KNJK - El Centro Naf, California, USA
Distance from station: SSE 78mi, 126km
Updated: Mon, 21-Aug-2017 11:56am PDT
Few Clouds
Few Clouds
 Wind from NE
Wind: NE 8 mph , 13 km/h
Temperature: 99°F , 37°C
Dew Point: 50°F , 10°C
Humidity: 19%
Barometer: 29.88 inHg , 1011.9 hPa
Clouds: Few Clouds
Visibility: 10 miles , 16 km
Cloud details: Few Clouds 8000 ft
Few Clouds 12000 ft
2017/08/21 18:56 KNJK 211856Z 04007KT 10SM FEW080 FEW120 37/10 A2988 RMK AO2 SLP132 T03670100
 
KSEE - San Diego/Santee, California, USA
Distance from station: SSW 74mi, 120km
Updated: Mon, 21-Aug-2017 11:47am PDT
Clear
Clear
 Wind from varies
Wind: varies 6 mph , 9 km/h
Temperature: 77°F , 25°C
Dew Point: 59°F , 15°C
Humidity: 54%
Barometer: 30.00 inHg , 1015.9 hPa
Clouds: Clear
Visibility: 10 miles , 16 km
2017/08/21 18:47 KSEE 211847Z VRB05KT 10SM SKC 25/15 A3000
KCNO - Chino, California, USA
Distance from station: W 72mi, 116km
Updated: Mon, 21-Aug-2017 11:53am PDT
Haze, Clear
Haze, Clear
 Wind from WSW
Wind: WSW 7 mph , 11 km/h
Temperature: 81°F , 27°C
Heat Index: 82°F , 28°C
Dew Point: 61°F , 16°C
Humidity: 51%
Barometer: 30.02 inHg , 1016.6 hPa
Summary: Haze
Clouds: Clear
Visibility: 6 miles , 10 km
2017/08/21 18:53 KCNO 211853Z 24006KT 6SM HZ CLR 27/16 A3002 RMK AO2 SLP159 T02670161